Latest Coastal Weather Observations for Newcastle Nobbys

IDN60701

Issued at 2:02 pm EDT Thursday 24 October 2019 (issued every 10 minutes, with the page automatically refreshed every 10 minutes)

About coastal observations | Map of coastal stations | Coastal observations for NSW | Marine services | Other Formats
Station Details ID: 061055 Name: NEWCASTLE NOBBYS SIGNAL STATION AWS Lat: -32.92 Lon: 151.80 Height: 33.0 m
Data from the previous 72 hours. | See also: Recent months at Newcastle Nobbys
Date/Time
EDT
Wind Sea
Height
m
Swell Vis
km
Cloud Weather Temp
°C
Press
hPa
Rain since
9am
mm
Dir  Spd
kts
Gust
kts
Height
m
Period
s
Dir
24/02:00pm SE 7 8 - - - - - - - 21.8 - 0.0
24/01:30pm SE 8 9 - - - - - - - 21.3 - 0.0
24/01:00pm SSE 9 11 - - - - - - - 21.4 - 0.0
24/12:30pm SSE 9 10 - - - - - - - 21.2 - 0.0
24/12:00pm SSE 9 10 - - - - - - - 21.1 - 0.0
24/11:30am S 10 11 - - - - - - - 20.6 - 0.0
24/11:00am S 9 10 - - - - - - - 20.3 - 0.0
24/10:30am S 10 12 - - - - - - - 19.7 - 0.0
24/10:00am S 11 13 - - - - - - - 19.6 - 0.0
24/09:30am S 13 15 - - - - - - - 19.4 - 0.0
24/09:00am SSW 11 14 - - - - - - - 19.3 - 0.0
24/08:30am SSW 10 12 - - - - - - - 19.2 - 0.0
24/08:00am SSW 7 11 - - - - - - - 19.4 - 0.0
24/07:30am SW 5 10 - - - - - - - 19.0 - 0.0
24/07:00am SSW 6 8 - - - - - - - 18.5 - 0.0
24/06:30am SSW 3 8 - - - - - - - 18.4 - 0.0
24/06:00am SW 2 4 - - - - - - - 17.7 - 0.0
24/05:30am W 4 5 - - - - - - - 17.8 - 0.0
24/05:00am N 3 3 - - - - - - - 18.1 - 0.0
24/04:30am NE 1 4 - - - - - - - 18.4 - 0.0
24/04:00am ENE 3 3 - - - - - - - 18.4 - 0.0
24/03:30am ENE 5 5 - - - - - - - 18.5 - 0.0
24/03:00am NNE 4 5 - - - - - - - 19.0 - 0.0
24/02:30am N 4 5 - - - - - - - 19.0 - 0.0
24/02:00am N 4 6 - - - - - - - 19.1 - 0.0
24/01:30am NNE 7 9 - - - - - - - 19.5 - 0.0
24/01:00am NE 7 10 - - - - - - - 19.5 - 0.0
24/12:30am NNE 6 7 - - - - - - - 19.8 - 0.0
24/12:00am N 4 5 - - - - - - - 19.6 - 0.0
 
Date/Time
EDT
Wind Sea
Height
m
Swell Vis
km
Cloud Weather Temp
°C
Press
hPa
Rain since
9am
mm
Dir  Spd
kts
Gust
kts
Height
m
Period
s
Dir
23/11:30pm NE 6 7 - - - - - - - 19.6 - 0.0
23/11:00pm ENE 4 6 - - - - - - - 19.7 - 0.0
23/10:30pm NNE 3 5 - - - - - - - 19.7 - 0.0
23/10:00pm N 5 7 - - - - - - - 20.1 - 0.0
23/09:30pm NNE 4 5 - - - - - - - 19.8 - 0.0
23/09:00pm NNE 7 9 - - - - - - - 20.3 - 0.0
23/08:30pm NE 7 9 - - - - - - - 21.0 - 0.0
23/08:00pm NNE 2 6 - - - - - - - 20.7 - 0.0
23/07:30pm NE 4 8 - - - - - - - 20.4 - 0.0
23/07:00pm ENE 8 12 - - - - - - - 20.6 - 0.0
23/06:30pm ENE 10 13 - - - - - - - 20.9 - 0.0
23/06:00pm ENE 11 16 - - - - - - - 21.0 - 0.0
23/05:30pm ENE 13 16 - - - - - - - 20.8 - 0.0
23/05:00pm ENE 15 18 - - - - - - - 20.8 - 0.0
23/04:30pm ENE 17 20 - - - - - - - 20.6 - 0.0
23/04:00pm ENE 19 22 - - - - - - - 20.6 - 0.0
23/03:30pm ENE 18 22 - - - - - - - 20.6 - 0.0
23/03:00pm ENE 18 21 - - - - - - - 20.7 - 0.0
23/02:30pm E 16 19 - - - - - - - 20.8 - 0.0
23/02:00pm ENE 15 18 - - - - - - - 21.1 - 0.0
23/01:30pm E 10 14 - - - - - - - 21.2 - 0.0
23/01:00pm E 8 11 - - - - - - - 21.4 - 0.0
23/12:30pm ESE 7 9 - - - - - - - 21.0 - 0.0
23/12:00pm ESE 5 7 - - - - - - - 21.4 - 0.0
23/11:30am SE 5 5 - - - - - - - 21.7 - 0.0
23/11:00am N 3 5 - - - - - - - 21.8 - 0.0
23/10:30am N 8 10 - - - - - - - 20.7 - 0.0
23/10:00am NNW 9 10 - - - - - - - 19.6 - 0.0
23/09:30am N 6 7 - - - - - - - 19.6 - 0.0
23/09:00am N 4 6 - - - - - - - 19.2 - 0.0
23/08:30am N 4 6 - - - - - - - 19.0 - 0.0
23/08:00am NNE 3 4 - - - - - - - 18.6 - 0.0
23/07:30am N 4 5 - - - - - - - 18.2 - 0.0
23/07:00am NNE 2 3 - - - - - - - 17.9 - 0.0
23/06:30am NE 1 2 - - - - - - - 17.4 - 0.0
23/06:00am NE 1 2 - - - - - - - 17.2 - 0.0
23/05:30am NNE 2 3 - - - - - - - 17.2 - 0.0
23/05:00am N 3 4 - - - - - - - 17.4 - 0.0
23/04:30am NE 7 10 - - - - - - - 18.3 - 0.0
23/04:00am ENE 10 13 - - - - - - - 18.5 - 0.0
23/03:30am ENE 12 15 - - - - - - - 18.6 - 0.0
23/03:00am ENE 13 16 - - - - - - - 18.7 - 0.0
23/02:30am E 14 17 - - - - - - - 18.6 - 0.0
23/02:00am E 12 15 - - - - - - - 18.6 - 0.0
23/01:30am E 11 14 - - - - - - - 18.7 - 0.0
23/01:00am ENE 10 13 - - - - - - - 18.6 - 0.0
23/12:30am E 10 13 - - - - - - - 18.7 - 0.0
23/12:00am ENE 11 13 - - - - - - - 18.6 - 0.0
 
Date/Time
EDT
Wind Sea
Height
m
Swell Vis
km
Cloud Weather Temp
°C
Press
hPa
Rain since
9am
mm
Dir  Spd
kts
Gust
kts
Height
m
Period
s
Dir
22/11:30pm ENE 10 13 - - - - - - - 18.5 - 0.0
22/11:00pm ENE 9 13 - - - - - - - 18.5 - 0.0
22/10:30pm ENE 12 16 - - - - - - - 18.8 - 0.0
22/10:00pm ENE 12 15 - - - - - - - 18.9 - 0.0
22/09:30pm ENE 14 17 - - - - - - - 18.9 - 0.0
22/09:00pm ENE 14 18 - - - - - - - 19.0 - 0.0
22/08:30pm ENE 14 17 - - - - - - - 18.9 - 0.0
22/08:00pm ENE 12 15 - - - - - - - 18.9 - 0.0
22/07:30pm ENE 12 15 - - - - - - - 19.0 - 0.0
22/07:00pm ENE 14 17 - - - - - - - 19.3 - 0.0
22/06:30pm ENE 15 19 - - - - - - - 19.4 - 0.0
22/06:00pm ENE 17 21 - - - - - - - 19.7 - 0.0
22/05:30pm ENE 17 21 - - - - - - - 19.6 - 0.0
22/05:00pm ENE 16 18 - - - - - - - 19.6 - 0.0
22/04:30pm E 13 17 - - - - - - - 19.7 - 0.0
22/04:00pm ENE 14 16 - - - - - - - 20.0 - 0.0
22/03:30pm E 11 15 - - - - - - - 20.1 - 0.0
22/03:00pm E 11 13 - - - - - - - 20.0 - 0.0
22/02:30pm E 11 14 - - - - - - - 20.3 - 0.0
22/02:00pm E 10 11 - - - - - - - 20.4 - 0.0
22/01:30pm E 9 10 - - - - - - - 20.1 - 0.0
22/01:00pm ESE 9 10 - - - - - - - 19.8 - 0.0
22/12:30pm SE 9 10 - - - - - - - 20.6 - 0.0
22/12:00pm SE 7 8 - - - - - - - 20.4 - 0.0
22/11:30am SE 5 7 - - - - - - - 20.2 - 0.0
22/11:00am SE 5 6 - - - - - - - 19.6 - 0.0
22/10:30am SE 2 3 - - - - - - - 19.1 - 0.0
22/10:00am ESE 2 3 - - - - - - - 19.9 - 0.0
22/09:30am NNE 2 3 - - - - - - - 19.5 - 0.0
22/09:00am N 4 5 - - - - - - - 17.6 - 0.0
22/08:30am N 3 4 - - - - - - - 16.9 - 0.0
22/08:00am N 2 3 - - - - - - - 15.7 - 0.0
22/07:30am NW 3 4 - - - - - - - 14.9 - 0.0
22/07:00am NNW 3 4 - - - - - - - 14.7 - 0.0
22/06:30am WNW 2 3 - - - - - - - 15.1 - 0.0
22/06:00am WNW 3 4 - - - - - - - 15.0 - 0.0
22/05:30am WNW 3 4 - - - - - - - 15.2 - 0.0
22/05:00am W 2 3 - - - - - - - 15.7 - 0.0
22/04:30am W 3 3 - - - - - - - 15.9 - 0.0
22/04:00am CALM 0 1 - - - - - - - 16.3 - 0.0
22/03:30am WNW 1 2 - - - - - - - 16.5 - 0.0
22/03:00am NNE 2 3 - - - - - - - 16.6 - 0.0
22/02:30am NE 3 5 - - - - - - - 17.0 - 0.0
22/02:00am NE 5 6 - - - - - - - 17.1 - 0.0
22/01:30am NE 5 7 - - - - - - - 17.3 - 0.0
22/01:00am ENE 5 8 - - - - - - - 17.2 - 0.0
22/12:30am NE 5 7 - - - - - - - 17.2 - 0.0
22/12:00am ENE 6 8 - - - - - - - 17.3 - 0.0
 
Date/Time
EDT
Wind Sea
Height
m
Swell Vis
km
Cloud Weather Temp
°C
Press
hPa
Rain since
9am
mm
Dir  Spd
kts
Gust
kts
Height
m
Period
s
Dir
21/11:30pm NE 7 9 - - - - - - - 17.5 - 0.0
21/11:00pm NE 7 9 - - - - - - - 17.7 - 0.0
21/10:30pm NE 8 11 - - - - - - - 17.8 - 0.0
21/10:00pm NE 7 10 - - - - - - - 17.9 - 0.0
21/09:30pm ENE 7 9 - - - - - - - 18.0 - 0.0
21/09:00pm NE 8 10 - - - - - - - 18.1 - 0.0
21/08:30pm ENE 9 12 - - - - - - - 18.2 - 0.0
21/08:00pm ENE 11 13 - - - - - - - 18.1 - 0.0
21/07:30pm ENE 12 14 - - - - - - - 18.3 - 0.0
21/07:00pm ENE 12 14 - - - - - - - 18.4 - 0.0
21/06:30pm E 11 13 - - - - - - - 18.7 - 0.0
21/06:00pm E 12 14 - - - - - - - 18.8 - 0.0
21/05:30pm E 12 15 - - - - - - - 18.9 - 0.0
21/05:00pm E 13 15 - - - - - - - 19.2 - 0.0
21/04:30pm E 13 15 - - - - - - - 19.1 - 0.0
21/04:00pm E 13 15 - - - - - - - 19.1 - 0.0
21/03:30pm ESE 13 15 - - - - - - - 19.1 - 0.0
21/03:00pm ESE 13 14 - - - - - - - 19.3 - 0.0
21/02:30pm ESE 13 14 - - - - - - - 19.4 - 0.0

Other formats

Comma delimited format used in spreadsheet applications
http://www.bom.gov.au/fwo/IDN60701/IDN60701.94774.axf

JavaScript Object Notation format (JSON) in row-major order
http://www.bom.gov.au/fwo/IDN60701/IDN60701.94774.json

Data quality

Most of these data are generated automatically and are frequently updated. Quality checks on data are not normally performed. It is possible for incorrect values to appear. Refer to information at About Latest Weather Observations and please check the disclaimer before using these data.